This is the latest recevied weather packets stored in our database for station/object KI4UEM. If no packets are shown the sender has not sent any weather packets the latest 10 day(s).
| Time | Temp. | Humidity | Pressure | Rain* | Wind** | Luminosity | Snow |
|---|---|---|---|---|---|---|---|
| 1777018237 | 15° C | 71% | 1015.6 hPa | 0 mm | - | 0 W/m² | - |
| 1777014617 | 16.67° C | 65% | 1015.5 hPa | 0 mm | - | 0 W/m² | - |
| 1777012817 | 17.22° C | 62% | 1015.6 hPa | 0 mm | - | 0 W/m² | - |
| 1777011617 | 17.78° C | 60% | 1015.9 hPa | 0 mm | - | 0 W/m² | - |
| 1777010437 | 18.33° C | 58% | 1016.1 hPa | 0 mm | - | 0 W/m² | - |
| 1777008016 | 18.89° C | 54% | 1016.3 hPa | 0 mm | - | 0 W/m² | - |
| 1777007416 | 18.89° C | 54% | 1016.4 hPa | 0 mm | - | 0 W/m² | - |
| 1777006837 | 18.89° C | 53% | 1016.5 hPa | 0 mm | - | 0 W/m² | - |
| 1777006517 | 18.89° C | 52% | 1016.4 hPa | 0 mm | - | 0 W/m² | - |
| 1777005917 | 18.89° C | 51% | 1016.5 hPa | 0 mm | - | 0 W/m² | - |
| 1777001117 | 19.44° C | 49% | 1016.4 hPa | 0 mm | - | 0 W/m² | - |
| 1776999917 | 20° C | 49% | 1016.4 hPa | 0 mm | - | 0 W/m² | - |
| 1776993916 | 22.22° C | 46% | 1016 hPa | 0 mm | - | 0 W/m² | - |
| 1776992117 | 22.78° C | 44% | 1015.8 hPa | 0 mm | - | 0 W/m² | - |
| 1776991517 | 23.33° C | 42% | 1015.5 hPa | 0 mm | - | 0 W/m² | - |
| 1776989716 | 25.56° C | 38% | 1015.3 hPa | 0 mm | - | 0 W/m² | - |
| 1776989116 | 26.11° C | 36% | 1015.2 hPa | 0 mm | - | 2 W/m² | - |
| 1776988517 | 26.67° C | 34% | 1015.2 hPa | 0 mm | - | 11 W/m² | - |
| 1776985516 | 28.33° C | 30% | 1014.9 hPa | 0 mm | - | 137 W/m² | - |
| 1776974716 | 30° C | 26% | 1015.9 hPa | 0 mm | - | 763 W/m² | - |
| 1776974116 | 30° C | 27% | 1016.1 hPa | 0 mm | - | 780 W/m² | - |
| 1776972936 | 30° C | 26% | 1016.7 hPa | 0 mm | - | 836 W/m² | - |
| 1776971116 | 29.44° C | 27% | 1017 hPa | 0 mm | - | 881 W/m² | - |
| 1776968716 | 29.44° C | 29% | 1017.8 hPa | 0 mm | - | 930 W/m² | - |
| 1776965116 | 28.89° C | 29% | 1018.4 hPa | 0 mm | - | 954 W/m² | - |
* Rain latest hour (hover to see other rain measurements)
** Current wind speed in m/s (hover to see current wind gust speed)